CheckWX is a tool to help pilots better visualize weather data.  It is not intended as a substitute for an official pre-flight weather briefing.

22:20:06 UTC

KEFD TAF
Ellington Airport
Houston, Texas, USA
TAF KEFD 072000Z 0720/0902 14006KT 9999 FEW040 BKN250 QNH2993INS BECMG 0720/0721 18009KT 9999 FEW150 QNH2994INS BECMG 0805/0806 19006KT 9999 SCT015 QNH2996INS TX35/0722Z TN27/0809Z

Jul-7@
20:00 UTC

Jul-7 @ 20:00 UTC

Jul-9@
02:00 UTC

Jul-9 @ 02:00 UTC

TAF KEFD 072000Z 0720/0902 14006KT 9999 FEW040 BKN250 QNH2993INS
Wind
  • 140° at 6 KTS
Cloud Levels
  • Few at 4,000' AGL
  • Broken at 25,000' AGL

Jul-7@
20:00 UTC

Jul-7 @ 20:00 UTC

Jul-8@
05:00 UTC

Jul-8 @ 05:00 UTC

BECMG 0720/0721 18009KT 9999 FEW150 QNH2994INS

Expired

Wind
  • 180° at 9 KTS
Cloud Levels
  • Few at 15,000' AGL

Jul-8@
05:00 UTC

Jul-8 @ 05:00 UTC

Jul-9@
02:00 UTC

Jul-9 @ 02:00 UTC

BECMG 0805/0806 19006KT 9999 SCT015 QNH2996INS TX35/0722Z TN27/0809Z

Becoming

Becoming Conditions expected by Wed, Jul 8, 2020 @ 06:00 UTC

Wind
  • 190° at 6 KTS
Cloud Levels
  • Scattered at 1,500' AGL